sensor_id;sensor_type;location;lat;lon;timestamp;P1;durP1;ratioP1;P2;durP2;ratioP2
64467;SDS011;50853;46.836;16.820;2022-07-06T00:01:35;9.55;;;3.83;;
64467;SDS011;50853;46.836;16.820;2022-07-06T00:04:02;15.98;;;4.00;;
64467;SDS011;50853;46.836;16.820;2022-07-06T00:06:28;7.38;;;3.80;;
64467;SDS011;50853;46.836;16.820;2022-07-06T00:08:54;9.30;;;3.80;;
64467;SDS011;50853;46.836;16.820;2022-07-06T00:11:20;10.35;;;4.95;;
64467;SDS011;50853;46.836;16.820;2022-07-06T00:13:47;6.35;;;4.60;;
64467;SDS011;50853;46.836;16.820;2022-07-06T00:16:13;6.78;;;4.47;;
64467;SDS011;50853;46.836;16.820;2022-07-06T00:18:39;6.95;;;5.40;;
64467;SDS011;50853;46.836;16.820;2022-07-06T00:21:05;4.70;;;4.30;;
64467;SDS011;50853;46.836;16.820;2022-07-06T00:23:31;5.57;;;4.55;;
64467;SDS011;50853;46.836;16.820;2022-07-06T00:25:56;6.10;;;5.00;;
64467;SDS011;50853;46.836;16.820;2022-07-06T00:28:22;7.20;;;4.60;;
64467;SDS011;50853;46.836;16.820;2022-07-06T00:30:48;10.77;;;5.32;;
64467;SDS011;50853;46.836;16.820;2022-07-06T00:33:14;6.43;;;5.47;;
64467;SDS011;50853;46.836;16.820;2022-07-06T00:35:40;9.85;;;5.78;;
64467;SDS011;50853;46.836;16.820;2022-07-06T00:38:06;6.65;;;5.25;;
64467;SDS011;50853;46.836;16.820;2022-07-06T00:40:32;11.35;;;6.25;;
64467;SDS011;50853;46.836;16.820;2022-07-06T00:42:58;8.02;;;5.47;;
64467;SDS011;50853;46.836;16.820;2022-07-06T00:45:24;9.85;;;5.50;;
64467;SDS011;50853;46.836;16.820;2022-07-06T00:47:50;9.63;;;6.10;;
64467;SDS011;50853;46.836;16.820;2022-07-06T00:50:16;9.95;;;5.88;;
64467;SDS011;50853;46.836;16.820;2022-07-06T00:52:54;12.43;;;6.47;;
64467;SDS011;50853;46.836;16.820;2022-07-06T00:55:25;8.55;;;6.30;;
64467;SDS011;50853;46.836;16.820;2022-07-06T00:57:53;10.45;;;6.10;;
64467;SDS011;50853;46.836;16.820;2022-07-06T01:05:13;11.43;;;5.78;;
64467;SDS011;50853;46.836;16.820;2022-07-06T01:07:43;6.47;;;5.47;;
64467;SDS011;50853;46.836;16.820;2022-07-06T01:10:11;10.32;;;6.30;;
64467;SDS011;50853;46.836;16.820;2022-07-06T01:12:39;8.85;;;5.40;;
64467;SDS011;50853;46.836;16.820;2022-07-06T01:15:07;8.82;;;5.63;;
64467;SDS011;50853;46.836;16.820;2022-07-06T01:17:38;7.65;;;5.18;;
64467;SDS011;50853;46.836;16.820;2022-07-06T01:22:41;9.38;;;5.72;;
64467;SDS011;50853;46.836;16.820;2022-07-06T01:25:08;7.63;;;5.55;;
64467;SDS011;50853;46.836;16.820;2022-07-06T01:27:35;8.00;;;5.30;;
64467;SDS011;50853;46.836;16.820;2022-07-06T01:30:06;11.32;;;5.30;;
64467;SDS011;50853;46.836;16.820;2022-07-06T01:32:36;11.20;;;5.30;;
64467;SDS011;50853;46.836;16.820;2022-07-06T01:35:03;5.72;;;5.05;;
64467;SDS011;50853;46.836;16.820;2022-07-06T01:37:31;11.15;;;5.25;;
64467;SDS011;50853;46.836;16.820;2022-07-06T01:39:58;5.80;;;4.32;;
64467;SDS011;50853;46.836;16.820;2022-07-06T01:42:28;6.10;;;4.55;;
64467;SDS011;50853;46.836;16.820;2022-07-06T01:44:54;7.15;;;4.78;;
64467;SDS011;50853;46.836;16.820;2022-07-06T01:47:20;9.38;;;4.70;;
64467;SDS011;50853;46.836;16.820;2022-07-06T01:49:47;6.60;;;4.65;;
64467;SDS011;50853;46.836;16.820;2022-07-06T01:52:13;6.70;;;4.68;;
64467;SDS011;50853;46.836;16.820;2022-07-06T01:54:39;5.50;;;4.30;;
64467;SDS011;50853;46.836;16.820;2022-07-06T01:57:08;7.53;;;4.35;;
64467;SDS011;50853;46.836;16.820;2022-07-06T01:59:34;7.45;;;4.50;;
64467;SDS011;50853;46.836;16.820;2022-07-06T02:02:00;6.63;;;4.13;;
64467;SDS011;50853;46.836;16.820;2022-07-06T02:04:26;6.18;;;4.63;;
64467;SDS011;50853;46.836;16.820;2022-07-06T02:06:52;5.15;;;4.65;;
64467;SDS011;50853;46.836;16.820;2022-07-06T02:09:18;5.90;;;4.55;;
64467;SDS011;50853;46.836;16.820;2022-07-06T02:11:44;8.45;;;4.80;;
64467;SDS011;50853;46.836;16.820;2022-07-06T02:14:10;8.00;;;4.82;;
64467;SDS011;50853;46.836;16.820;2022-07-06T02:16:36;5.87;;;4.33;;
64467;SDS011;50853;46.836;16.820;2022-07-06T02:19:02;4.50;;;4.10;;
64467;SDS011;50853;46.836;16.820;2022-07-06T02:21:28;7.93;;;3.90;;
64467;SDS011;50853;46.836;16.820;2022-07-06T02:23:54;7.85;;;4.47;;
64467;SDS011;50853;46.836;16.820;2022-07-06T02:26:20;4.93;;;4.17;;
64467;SDS011;50853;46.836;16.820;2022-07-06T02:28:46;7.78;;;4.22;;
64467;SDS011;50853;46.836;16.820;2022-07-06T02:31:13;5.75;;;4.43;;
64467;SDS011;50853;46.836;16.820;2022-07-06T02:33:39;6.20;;;4.50;;
64467;SDS011;50853;46.836;16.820;2022-07-06T02:36:06;12.17;;;5.03;;
64467;SDS011;50853;46.836;16.820;2022-07-06T02:38:32;8.13;;;4.30;;
64467;SDS011;50853;46.836;16.820;2022-07-06T02:40:58;9.50;;;5.65;;
64467;SDS011;50853;46.836;16.820;2022-07-06T02:43:24;7.30;;;4.50;;
64467;SDS011;50853;46.836;16.820;2022-07-06T02:45:50;6.88;;;4.32;;
64467;SDS011;50853;46.836;16.820;2022-07-06T02:48:16;8.88;;;4.57;;
64467;SDS011;50853;46.836;16.820;2022-07-06T02:50:44;8.45;;;4.63;;
64467;SDS011;50853;46.836;16.820;2022-07-06T02:53:10;11.90;;;4.63;;
64467;SDS011;50853;46.836;16.820;2022-07-06T02:55:36;12.20;;;3.88;;
64467;SDS011;50853;46.836;16.820;2022-07-06T02:58:02;5.47;;;4.47;;
64467;SDS011;50853;46.836;16.820;2022-07-06T03:00:27;4.82;;;3.97;;
64467;SDS011;50853;46.836;16.820;2022-07-06T03:02:53;9.63;;;5.13;;
64467;SDS011;50853;46.836;16.820;2022-07-06T03:05:19;7.75;;;4.30;;
64467;SDS011;50853;46.836;16.820;2022-07-06T03:07:45;5.50;;;4.57;;
64467;SDS011;50853;46.836;16.820;2022-07-06T03:10:11;5.72;;;4.47;;
64467;SDS011;50853;46.836;16.820;2022-07-06T03:12:40;7.07;;;4.30;;
64467;SDS011;50853;46.836;16.820;2022-07-06T03:15:06;7.47;;;4.28;;
64467;SDS011;50853;46.836;16.820;2022-07-06T03:17:35;7.63;;;4.43;;
64467;SDS011;50853;46.836;16.820;2022-07-06T03:20:02;6.82;;;4.30;;
64467;SDS011;50853;46.836;16.820;2022-07-06T03:22:29;9.23;;;4.50;;
64467;SDS011;50853;46.836;16.820;2022-07-06T03:24:56;6.47;;;4.70;;
64467;SDS011;50853;46.836;16.820;2022-07-06T03:27:22;4.93;;;4.07;;
64467;SDS011;50853;46.836;16.820;2022-07-06T03:29:49;6.78;;;4.13;;
64467;SDS011;50853;46.836;16.820;2022-07-06T03:32:14;5.35;;;3.85;;
64467;SDS011;50853;46.836;16.820;2022-07-06T03:34:40;5.55;;;3.65;;
64467;SDS011;50853;46.836;16.820;2022-07-06T03:37:06;7.40;;;3.70;;
64467;SDS011;50853;46.836;16.820;2022-07-06T03:39:33;6.05;;;3.63;;
64467;SDS011;50853;46.836;16.820;2022-07-06T03:41:59;6.25;;;3.72;;
64467;SDS011;50853;46.836;16.820;2022-07-06T03:44:25;7.63;;;3.33;;
64467;SDS011;50853;46.836;16.820;2022-07-06T03:46:50;8.00;;;3.17;;
64467;SDS011;50853;46.836;16.820;2022-07-06T03:49:19;4.10;;;3.25;;
64467;SDS011;50853;46.836;16.820;2022-07-06T03:51:45;5.05;;;3.10;;
64467;SDS011;50853;46.836;16.820;2022-07-06T03:54:11;8.45;;;3.22;;
64467;SDS011;50853;46.836;16.820;2022-07-06T03:56:37;5.03;;;3.10;;
64467;SDS011;50853;46.836;16.820;2022-07-06T03:59:04;7.28;;;3.20;;
64467;SDS011;50853;46.836;16.820;2022-07-06T04:01:29;4.05;;;2.65;;
64467;SDS011;50853;46.836;16.820;2022-07-06T04:03:55;5.20;;;2.85;;
64467;SDS011;50853;46.836;16.820;2022-07-06T04:06:21;10.13;;;3.13;;
64467;SDS011;50853;46.836;16.820;2022-07-06T04:08:47;7.43;;;3.08;;
64467;SDS011;50853;46.836;16.820;2022-07-06T04:11:13;5.15;;;2.88;;
64467;SDS011;50853;46.836;16.820;2022-07-06T04:13:39;4.35;;;2.85;;
64467;SDS011;50853;46.836;16.820;2022-07-06T04:16:06;4.60;;;2.70;;
64467;SDS011;50853;46.836;16.820;2022-07-06T04:18:32;5.22;;;2.80;;
64467;SDS011;50853;46.836;16.820;2022-07-06T04:20:59;5.32;;;2.83;;
64467;SDS011;50853;46.836;16.820;2022-07-06T04:23:25;6.18;;;2.97;;
64467;SDS011;50853;46.836;16.820;2022-07-06T04:25:51;6.63;;;3.10;;
64467;SDS011;50853;46.836;16.820;2022-07-06T04:28:17;8.73;;;3.13;;
64467;SDS011;50853;46.836;16.820;2022-07-06T04:30:43;5.13;;;2.63;;
64467;SDS011;50853;46.836;16.820;2022-07-06T04:33:09;5.38;;;2.38;;
64467;SDS011;50853;46.836;16.820;2022-07-06T04:35:35;7.20;;;2.90;;
64467;SDS011;50853;46.836;16.820;2022-07-06T04:38:01;9.00;;;2.92;;
64467;SDS011;50853;46.836;16.820;2022-07-06T04:40:26;4.30;;;2.45;;
64467;SDS011;50853;46.836;16.820;2022-07-06T04:42:52;3.95;;;2.20;;
64467;SDS011;50853;46.836;16.820;2022-07-06T04:45:18;3.17;;;2.33;;
64467;SDS011;50853;46.836;16.820;2022-07-06T04:47:44;6.35;;;2.45;;
64467;SDS011;50853;46.836;16.820;2022-07-06T04:50:10;5.15;;;2.33;;
64467;SDS011;50853;46.836;16.820;2022-07-06T04:55:03;5.10;;;2.30;;
64467;SDS011;50853;46.836;16.820;2022-07-06T04:57:34;12.15;;;2.67;;
64467;SDS011;50853;46.836;16.820;2022-07-06T05:00:00;5.03;;;2.40;;
64467;SDS011;50853;46.836;16.820;2022-07-06T05:02:26;11.45;;;3.88;;
64467;SDS011;50853;46.836;16.820;2022-07-06T05:04:52;6.40;;;2.40;;
64467;SDS011;50853;46.836;16.820;2022-07-06T05:07:18;4.05;;;2.20;;
64467;SDS011;50853;46.836;16.820;2022-07-06T05:09:44;4.80;;;2.07;;
64467;SDS011;50853;46.836;16.820;2022-07-06T05:12:10;6.00;;;2.55;;
64467;SDS011;50853;46.836;16.820;2022-07-06T05:14:36;6.00;;;2.10;;
64467;SDS011;50853;46.836;16.820;2022-07-06T05:17:02;5.22;;;2.50;;
64467;SDS011;50853;46.836;16.820;2022-07-06T05:19:28;7.53;;;2.30;;
64467;SDS011;50853;46.836;16.820;2022-07-06T05:34:01;5.05;;;1.95;;
64467;SDS011;50853;46.836;16.820;2022-07-06T05:36:27;6.65;;;2.35;;
64467;SDS011;50853;46.836;16.820;2022-07-06T05:38:53;3.40;;;1.97;;
64467;SDS011;50853;46.836;16.820;2022-07-06T05:41:19;5.53;;;2.40;;
64467;SDS011;50853;46.836;16.820;2022-07-06T05:43:45;4.80;;;1.80;;
64467;SDS011;50853;46.836;16.820;2022-07-06T05:46:10;10.37;;;2.00;;
64467;SDS011;50853;46.836;16.820;2022-07-06T05:48:36;9.00;;;2.37;;
64467;SDS011;50853;46.836;16.820;2022-07-06T05:51:20;3.65;;;1.80;;
64467;SDS011;50853;46.836;16.820;2022-07-06T05:53:46;5.87;;;2.00;;
64467;SDS011;50853;46.836;16.820;2022-07-06T05:56:13;4.70;;;2.00;;
64467;SDS011;50853;46.836;16.820;2022-07-06T05:58:39;3.80;;;1.83;;
64467;SDS011;50853;46.836;16.820;2022-07-06T06:01:05;6.87;;;2.20;;
64467;SDS011;50853;46.836;16.820;2022-07-06T06:03:34;4.25;;;2.00;;
64467;SDS011;50853;46.836;16.820;2022-07-06T06:06:00;3.90;;;2.17;;
64467;SDS011;50853;46.836;16.820;2022-07-06T06:08:26;2.13;;;1.57;;
64467;SDS011;50853;46.836;16.820;2022-07-06T06:10:52;3.33;;;2.00;;
64467;SDS011;50853;46.836;16.820;2022-07-06T06:15:44;3.42;;;1.92;;
64467;SDS011;50853;46.836;16.820;2022-07-06T06:18:10;7.63;;;2.30;;
64467;SDS011;50853;46.836;16.820;2022-07-06T06:20:36;2.67;;;1.70;;
64467;SDS011;50853;46.836;16.820;2022-07-06T06:23:02;6.97;;;2.27;;
64467;SDS011;50853;46.836;16.820;2022-07-06T06:25:33;6.97;;;1.88;;
64467;SDS011;50853;46.836;16.820;2022-07-06T06:28:04;2.45;;;1.48;;
64467;SDS011;50853;46.836;16.820;2022-07-06T06:30:32;3.92;;;1.80;;
64467;SDS011;50853;46.836;16.820;2022-07-06T06:33:08;4.20;;;1.73;;
64467;SDS011;50853;46.836;16.820;2022-07-06T06:35:43;6.25;;;1.80;;
64467;SDS011;50853;46.836;16.820;2022-07-06T06:38:12;10.10;;;1.70;;
64467;SDS011;50853;46.836;16.820;2022-07-06T06:40:39;7.28;;;2.30;;
64467;SDS011;50853;46.836;16.820;2022-07-06T06:43:05;4.13;;;2.10;;
64467;SDS011;50853;46.836;16.820;2022-07-06T06:45:31;9.70;;;1.70;;
64467;SDS011;50853;46.836;16.820;2022-07-06T06:47:57;7.33;;;2.80;;
64467;SDS011;50853;46.836;16.820;2022-07-06T06:50:23;6.90;;;4.10;;
64467;SDS011;50853;46.836;16.820;2022-07-06T06:52:49;3.13;;;1.90;;
64467;SDS011;50853;46.836;16.820;2022-07-06T06:55:16;5.43;;;1.92;;
64467;SDS011;50853;46.836;16.820;2022-07-06T06:57:42;5.22;;;1.90;;
64467;SDS011;50853;46.836;16.820;2022-07-06T07:00:08;8.90;;;2.10;;
64467;SDS011;50853;46.836;16.820;2022-07-06T07:05:00;8.02;;;1.75;;
64467;SDS011;50853;46.836;16.820;2022-07-06T07:07:26;4.60;;;1.63;;
64467;SDS011;50853;46.836;16.820;2022-07-06T07:09:52;3.33;;;1.67;;
64467;SDS011;50853;46.836;16.820;2022-07-06T07:12:17;2.60;;;1.80;;
64467;SDS011;50853;46.836;16.820;2022-07-06T07:14:43;3.90;;;1.77;;
64467;SDS011;50853;46.836;16.820;2022-07-06T07:17:10;6.13;;;1.67;;
64467;SDS011;50853;46.836;16.820;2022-07-06T07:19:36;4.07;;;1.88;;
64467;SDS011;50853;46.836;16.820;2022-07-06T07:22:03;9.75;;;2.50;;
64467;SDS011;50853;46.836;16.820;2022-07-06T07:24:29;4.43;;;1.88;;
64467;SDS011;50853;46.836;16.820;2022-07-06T07:26:55;7.93;;;2.10;;
64467;SDS011;50853;46.836;16.820;2022-07-06T07:29:21;2.70;;;1.60;;
64467;SDS011;50853;46.836;16.820;2022-07-06T07:31:47;4.53;;;1.60;;
64467;SDS011;50853;46.836;16.820;2022-07-06T07:34:13;4.97;;;1.67;;
64467;SDS011;50853;46.836;16.820;2022-07-06T07:36:38;9.27;;;1.80;;
64467;SDS011;50853;46.836;16.820;2022-07-06T07:39:04;4.68;;;1.65;;
64467;SDS011;50853;46.836;16.820;2022-07-06T07:41:30;3.10;;;1.45;;
64467;SDS011;50853;46.836;16.820;2022-07-06T07:43:56;4.50;;;1.60;;
64467;SDS011;50853;46.836;16.820;2022-07-06T07:46:22;4.17;;;1.37;;
64467;SDS011;50853;46.836;16.820;2022-07-06T07:48:48;2.63;;;1.30;;
64467;SDS011;50853;46.836;16.820;2022-07-06T07:51:14;2.40;;;1.27;;
64467;SDS011;50853;46.836;16.820;2022-07-06T07:53:40;4.35;;;1.20;;
64467;SDS011;50853;46.836;16.820;2022-07-06T07:56:06;3.50;;;1.20;;
64467;SDS011;50853;46.836;16.820;2022-07-06T07:58:32;5.22;;;1.45;;
64467;SDS011;50853;46.836;16.820;2022-07-06T08:00:58;6.00;;;1.07;;
64467;SDS011;50853;46.836;16.820;2022-07-06T08:03:24;2.35;;;1.27;;
64467;SDS011;50853;46.836;16.820;2022-07-06T08:05:50;4.85;;;1.20;;
64467;SDS011;50853;46.836;16.820;2022-07-06T08:08:17;3.75;;;1.10;;
64467;SDS011;50853;46.836;16.820;2022-07-06T08:10:43;5.00;;;1.60;;
64467;SDS011;50853;46.836;16.820;2022-07-06T08:13:10;2.60;;;1.10;;
64467;SDS011;50853;46.836;16.820;2022-07-06T08:15:36;2.25;;;1.38;;
64467;SDS011;50853;46.836;16.820;2022-07-06T08:18:03;7.68;;;1.35;;
64467;SDS011;50853;46.836;16.820;2022-07-06T08:22:55;6.53;;;1.30;;
64467;SDS011;50853;46.836;16.820;2022-07-06T08:25:21;5.70;;;1.25;;
64467;SDS011;50853;46.836;16.820;2022-07-06T08:27:47;3.00;;;1.45;;
64467;SDS011;50853;46.836;16.820;2022-07-06T08:32:40;6.25;;;1.75;;
64467;SDS011;50853;46.836;16.820;2022-07-06T08:35:07;4.22;;;1.40;;
64467;SDS011;50853;46.836;16.820;2022-07-06T08:37:33;4.00;;;1.60;;
64467;SDS011;50853;46.836;16.820;2022-07-06T08:39:59;3.58;;;1.40;;
64467;SDS011;50853;46.836;16.820;2022-07-06T08:42:27;3.42;;;1.48;;
64467;SDS011;50853;46.836;16.820;2022-07-06T08:44:58;2.45;;;1.33;;
64467;SDS011;50853;46.836;16.820;2022-07-06T08:47:26;3.75;;;1.40;;
64467;SDS011;50853;46.836;16.820;2022-07-06T08:49:52;7.60;;;1.45;;
64467;SDS011;50853;46.836;16.820;2022-07-06T08:52:22;5.38;;;1.52;;
64467;SDS011;50853;46.836;16.820;2022-07-06T08:54:48;5.13;;;1.60;;
64467;SDS011;50853;46.836;16.820;2022-07-06T08:57:15;3.95;;;1.42;;
64467;SDS011;50853;46.836;16.820;2022-07-06T08:59:41;5.25;;;1.50;;
64467;SDS011;50853;46.836;16.820;2022-07-06T09:02:09;5.15;;;1.30;;
64467;SDS011;50853;46.836;16.820;2022-07-06T09:04:38;2.28;;;1.30;;
64467;SDS011;50853;46.836;16.820;2022-07-06T09:07:06;2.95;;;1.27;;
64467;SDS011;50853;46.836;16.820;2022-07-06T09:09:31;2.95;;;1.40;;
64467;SDS011;50853;46.836;16.820;2022-07-06T09:11:59;5.65;;;1.20;;
64467;SDS011;50853;46.836;16.820;2022-07-06T09:14:24;8.13;;;1.83;;
64467;SDS011;50853;46.836;16.820;2022-07-06T09:16:51;11.00;;;1.25;;
64467;SDS011;50853;46.836;16.820;2022-07-06T09:19:18;2.30;;;1.30;;
64467;SDS011;50853;46.836;16.820;2022-07-06T09:21:44;2.67;;;1.30;;
64467;SDS011;50853;46.836;16.820;2022-07-06T09:24:10;6.10;;;1.25;;
64467;SDS011;50853;46.836;16.820;2022-07-06T09:26:38;4.28;;;1.50;;
64467;SDS011;50853;46.836;16.820;2022-07-06T09:29:09;4.78;;;1.38;;
64467;SDS011;50853;46.836;16.820;2022-07-06T09:31:36;4.88;;;1.60;;
64467;SDS011;50853;46.836;16.820;2022-07-06T09:34:02;1.65;;;1.20;;
64467;SDS011;50853;46.836;16.820;2022-07-06T09:36:39;6.53;;;1.55;;
64467;SDS011;50853;46.836;16.820;2022-07-06T09:39:19;2.83;;;1.20;;
64467;SDS011;50853;46.836;16.820;2022-07-06T09:41:49;5.88;;;1.50;;
64467;SDS011;50853;46.836;16.820;2022-07-06T09:49:20;4.55;;;1.10;;
64467;SDS011;50853;46.836;16.820;2022-07-06T09:51:48;2.30;;;1.20;;
64467;SDS011;50853;46.836;16.820;2022-07-06T09:54:16;3.97;;;1.30;;
64467;SDS011;50853;46.836;16.820;2022-07-06T09:56:43;4.88;;;1.30;;
64467;SDS011;50853;46.836;16.820;2022-07-06T09:59:14;3.75;;;1.55;;
64467;SDS011;50853;46.836;16.820;2022-07-06T10:01:41;4.35;;;1.52;;
64467;SDS011;50853;46.836;16.820;2022-07-06T10:04:09;4.10;;;1.40;;
64467;SDS011;50853;46.836;16.820;2022-07-06T10:06:39;8.40;;;1.23;;
64467;SDS011;50853;46.836;16.820;2022-07-06T10:09:07;5.25;;;1.42;;
64467;SDS011;50853;46.836;16.820;2022-07-06T10:11:35;2.85;;;1.20;;
64467;SDS011;50853;46.836;16.820;2022-07-06T10:14:03;2.95;;;1.20;;
64467;SDS011;50853;46.836;16.820;2022-07-06T10:16:31;2.90;;;1.23;;
64467;SDS011;50853;46.836;16.820;2022-07-06T10:19:06;3.67;;;1.20;;
64467;SDS011;50853;46.836;16.820;2022-07-06T10:21:36;5.55;;;1.50;;
64467;SDS011;50853;46.836;16.820;2022-07-06T10:24:05;2.72;;;1.20;;
64467;SDS011;50853;46.836;16.820;2022-07-06T10:26:32;1.85;;;1.20;;
64467;SDS011;50853;46.836;16.820;2022-07-06T10:29:00;3.15;;;1.30;;
64467;SDS011;50853;46.836;16.820;2022-07-06T10:31:27;5.53;;;1.30;;
64467;SDS011;50853;46.836;16.820;2022-07-06T10:33:55;4.28;;;1.30;;
64467;SDS011;50853;46.836;16.820;2022-07-06T10:36:23;3.20;;;1.25;;
64467;SDS011;50853;46.836;16.820;2022-07-06T10:38:50;2.38;;;1.20;;
64467;SDS011;50853;46.836;16.820;2022-07-06T10:41:18;1.58;;;1.30;;
64467;SDS011;50853;46.836;16.820;2022-07-06T10:43:56;3.15;;;1.52;;
64467;SDS011;50853;46.836;16.820;2022-07-06T10:46:23;5.45;;;1.27;;
64467;SDS011;50853;46.836;16.820;2022-07-06T10:48:54;4.05;;;1.40;;
64467;SDS011;50853;46.836;16.820;2022-07-06T10:51:26;2.58;;;1.30;;
64467;SDS011;50853;46.836;16.820;2022-07-06T10:54:00;7.40;;;1.45;;
64467;SDS011;50853;46.836;16.820;2022-07-06T10:56:35;3.75;;;1.23;;
64467;SDS011;50853;46.836;16.820;2022-07-06T10:59:15;4.70;;;1.35;;
64467;SDS011;50853;46.836;16.820;2022-07-06T11:02:29;3.80;;;1.55;;
64467;SDS011;50853;46.836;16.820;2022-07-06T11:04:42;7.60;;;1.50;;
64467;SDS011;50853;46.836;16.820;2022-07-06T11:07:10;4.55;;;1.27;;
64467;SDS011;50853;46.836;16.820;2022-07-06T11:09:38;4.18;;;1.58;;
64467;SDS011;50853;46.836;16.820;2022-07-06T11:12:15;3.90;;;1.52;;
64467;SDS011;50853;46.836;16.820;2022-07-06T11:14:45;4.15;;;1.42;;
64467;SDS011;50853;46.836;16.820;2022-07-06T11:17:12;5.82;;;1.60;;
64467;SDS011;50853;46.836;16.820;2022-07-06T11:22:14;3.15;;;1.35;;
64467;SDS011;50853;46.836;16.820;2022-07-06T11:24:42;7.93;;;1.48;;
64467;SDS011;50853;46.836;16.820;2022-07-06T11:27:09;2.45;;;1.20;;
64467;SDS011;50853;46.836;16.820;2022-07-06T11:29:35;5.88;;;1.35;;
64467;SDS011;50853;46.836;16.820;2022-07-06T11:32:04;3.67;;;1.40;;
64467;SDS011;50853;46.836;16.820;2022-07-06T11:34:34;3.10;;;1.38;;
64467;SDS011;50853;46.836;16.820;2022-07-06T11:37:10;6.35;;;1.15;;
64467;SDS011;50853;46.836;16.820;2022-07-06T11:39:38;4.68;;;1.30;;
64467;SDS011;50853;46.836;16.820;2022-07-06T11:42:06;2.85;;;1.30;;
64467;SDS011;50853;46.836;16.820;2022-07-06T11:44:34;3.45;;;1.38;;
64467;SDS011;50853;46.836;16.820;2022-07-06T11:47:01;4.40;;;1.73;;
64467;SDS011;50853;46.836;16.820;2022-07-06T11:49:31;4.03;;;1.60;;
64467;SDS011;50853;46.836;16.820;2022-07-06T11:51:59;3.15;;;1.30;;
64467;SDS011;50853;46.836;16.820;2022-07-06T11:54:25;4.07;;;1.10;;
64467;SDS011;50853;46.836;16.820;2022-07-06T11:59:24;3.65;;;1.38;;
64467;SDS011;50853;46.836;16.820;2022-07-06T12:01:58;2.03;;;1.40;;
64467;SDS011;50853;46.836;16.820;2022-07-06T12:04:42;4.03;;;1.33;;
64467;SDS011;50853;46.836;16.820;2022-07-06T12:07:10;3.53;;;1.77;;
64467;SDS011;50853;46.836;16.820;2022-07-06T12:09:40;4.32;;;1.52;;
64467;SDS011;50853;46.836;16.820;2022-07-06T12:12:08;4.07;;;1.50;;
64467;SDS011;50853;46.836;16.820;2022-07-06T12:14:35;4.78;;;1.63;;
64467;SDS011;50853;46.836;16.820;2022-07-06T12:17:03;5.78;;;1.50;;
64467;SDS011;50853;46.836;16.820;2022-07-06T12:19:31;5.13;;;1.30;;
64467;SDS011;50853;46.836;16.820;2022-07-06T12:21:57;3.85;;;1.33;;
64467;SDS011;50853;46.836;16.820;2022-07-06T12:24:27;4.45;;;1.95;;
64467;SDS011;50853;46.836;16.820;2022-07-06T12:26:56;4.78;;;2.88;;
64467;SDS011;50853;46.836;16.820;2022-07-06T12:29:22;7.13;;;3.55;;
64467;SDS011;50853;46.836;16.820;2022-07-06T12:31:50;3.47;;;1.90;;
64467;SDS011;50853;46.836;16.820;2022-07-06T12:34:21;7.50;;;1.80;;
64467;SDS011;50853;46.836;16.820;2022-07-06T12:36:49;3.85;;;1.65;;
64467;SDS011;50853;46.836;16.820;2022-07-06T12:39:21;1.90;;;1.20;;
64467;SDS011;50853;46.836;16.820;2022-07-06T12:41:49;3.45;;;1.60;;
64467;SDS011;50853;46.836;16.820;2022-07-06T12:44:23;2.85;;;1.45;;
64467;SDS011;50853;46.836;16.820;2022-07-06T12:46:50;3.28;;;1.25;;
64467;SDS011;50853;46.836;16.820;2022-07-06T12:49:27;4.97;;;1.63;;
64467;SDS011;50853;46.836;16.820;2022-07-06T12:54:40;4.57;;;1.30;;
64467;SDS011;50853;46.836;16.820;2022-07-06T12:57:09;2.92;;;1.48;;
64467;SDS011;50853;46.836;16.820;2022-07-06T13:02:25;4.65;;;1.70;;
64467;SDS011;50853;46.836;16.820;2022-07-06T13:04:55;8.20;;;1.40;;
64467;SDS011;50853;46.836;16.820;2022-07-06T13:07:23;3.15;;;1.58;;
64467;SDS011;50853;46.836;16.820;2022-07-06T13:09:51;6.32;;;1.48;;
64467;SDS011;50853;46.836;16.820;2022-07-06T13:14:44;2.55;;;1.15;;
64467;SDS011;50853;46.836;16.820;2022-07-06T13:17:10;4.18;;;1.60;;
64467;SDS011;50853;46.836;16.820;2022-07-06T13:19:35;3.30;;;1.55;;
64467;SDS011;50853;46.836;16.820;2022-07-06T13:22:01;3.15;;;1.48;;
64467;SDS011;50853;46.836;16.820;2022-07-06T13:24:27;3.10;;;1.70;;
64467;SDS011;50853;46.836;16.820;2022-07-06T13:26:54;5.37;;;1.70;;
64467;SDS011;50853;46.836;16.820;2022-07-06T13:29:20;7.15;;;1.80;;
64467;SDS011;50853;46.836;16.820;2022-07-06T13:31:46;8.67;;;1.67;;
64467;SDS011;50853;46.836;16.820;2022-07-06T13:34:12;5.10;;;1.80;;
64467;SDS011;50853;46.836;16.820;2022-07-06T13:36:41;11.52;;;1.75;;
64467;SDS011;50853;46.836;16.820;2022-07-06T13:39:07;20.77;;;1.63;;
64467;SDS011;50853;46.836;16.820;2022-07-06T13:41:33;7.40;;;1.58;;
64467;SDS011;50853;46.836;16.820;2022-07-06T13:43:59;6.13;;;1.30;;
64467;SDS011;50853;46.836;16.820;2022-07-06T13:51:18;8.13;;;1.42;;
64467;SDS011;50853;46.836;16.820;2022-07-06T13:53:44;3.83;;;1.38;;
64467;SDS011;50853;46.836;16.820;2022-07-06T13:56:11;8.23;;;2.08;;
64467;SDS011;50853;46.836;16.820;2022-07-06T13:58:37;7.55;;;1.20;;
64467;SDS011;50853;46.836;16.820;2022-07-06T14:01:03;9.45;;;1.10;;
64467;SDS011;50853;46.836;16.820;2022-07-06T14:03:30;1.50;;;1.05;;
64467;SDS011;50853;46.836;16.820;2022-07-06T14:06:00;5.47;;;1.10;;
64467;SDS011;50853;46.836;16.820;2022-07-06T14:08:29;3.08;;;1.40;;
64467;SDS011;50853;46.836;16.820;2022-07-06T14:10:56;13.65;;;1.38;;
64467;SDS011;50853;46.836;16.820;2022-07-06T14:13:22;7.60;;;1.17;;
64467;SDS011;50853;46.836;16.820;2022-07-06T14:15:49;6.18;;;1.60;;
64467;SDS011;50853;46.836;16.820;2022-07-06T14:18:15;6.13;;;1.75;;
64467;SDS011;50853;46.836;16.820;2022-07-06T14:20:45;9.65;;;1.55;;
64467;SDS011;50853;46.836;16.820;2022-07-06T14:23:12;4.03;;;1.00;;
64467;SDS011;50853;46.836;16.820;2022-07-06T14:25:39;4.20;;;1.20;;
64467;SDS011;50853;46.836;16.820;2022-07-06T14:28:06;3.28;;;1.15;;
64467;SDS011;50853;46.836;16.820;2022-07-06T14:30:33;3.30;;;0.93;;
64467;SDS011;50853;46.836;16.820;2022-07-06T14:33:11;4.75;;;1.10;;
64467;SDS011;50853;46.836;16.820;2022-07-06T14:35:39;2.80;;;1.08;;
64467;SDS011;50853;46.836;16.820;2022-07-06T14:38:09;2.58;;;0.82;;
64467;SDS011;50853;46.836;16.820;2022-07-06T14:40:36;4.03;;;0.90;;
64467;SDS011;50853;46.836;16.820;2022-07-06T14:43:02;3.70;;;1.13;;
64467;SDS011;50853;46.836;16.820;2022-07-06T14:45:28;9.38;;;1.30;;
64467;SDS011;50853;46.836;16.820;2022-07-06T14:47:55;2.63;;;0.85;;
64467;SDS011;50853;46.836;16.820;2022-07-06T14:50:21;6.55;;;1.15;;
64467;SDS011;50853;46.836;16.820;2022-07-06T14:52:51;1.20;;;0.90;;
64467;SDS011;50853;46.836;16.820;2022-07-06T14:55:18;1.77;;;1.10;;
64467;SDS011;50853;46.836;16.820;2022-07-06T14:57:44;3.85;;;1.38;;
64467;SDS011;50853;46.836;16.820;2022-07-06T15:00:10;5.30;;;1.33;;
64467;SDS011;50853;46.836;16.820;2022-07-06T15:02:37;3.67;;;1.20;;
64467;SDS011;50853;46.836;16.820;2022-07-06T15:05:03;5.33;;;1.30;;
64467;SDS011;50853;46.836;16.820;2022-07-06T15:07:29;1.63;;;1.20;;
64467;SDS011;50853;46.836;16.820;2022-07-06T15:09:58;3.45;;;1.10;;
64467;SDS011;50853;46.836;16.820;2022-07-06T15:12:25;3.05;;;1.15;;
64467;SDS011;50853;46.836;16.820;2022-07-06T15:14:50;1.73;;;1.10;;
64467;SDS011;50853;46.836;16.820;2022-07-06T15:17:16;3.58;;;1.13;;
64467;SDS011;50853;46.836;16.820;2022-07-06T15:19:43;2.38;;;1.10;;
64467;SDS011;50853;46.836;16.820;2022-07-06T15:22:10;3.55;;;1.42;;
64467;SDS011;50853;46.836;16.820;2022-07-06T15:24:36;3.08;;;1.15;;
64467;SDS011;50853;46.836;16.820;2022-07-06T15:27:03;3.72;;;1.20;;
64467;SDS011;50853;46.836;16.820;2022-07-06T15:29:30;2.13;;;0.90;;